sensor_id;sensor_type;location;lat;lon;timestamp;temperature;humidity
45761;DHT22;31471;51.040;14.414;2022-11-18T00:00:18;4.90;99.90
45761;DHT22;31471;51.040;14.414;2022-11-18T00:02:44;5.00;99.90
45761;DHT22;31471;51.040;14.414;2022-11-18T00:05:09;5.00;99.90
45761;DHT22;31471;51.040;14.414;2022-11-18T00:07:35;5.00;99.90
45761;DHT22;31471;51.040;14.414;2022-11-18T00:10:01;5.00;99.90
45761;DHT22;31471;51.040;14.414;2022-11-18T00:12:26;5.00;99.90
45761;DHT22;31471;51.040;14.414;2022-11-18T00:15:10;5.10;99.90
45761;DHT22;31471;51.040;14.414;2022-11-18T00:17:36;5.10;99.90
45761;DHT22;31471;51.040;14.414;2022-11-18T00:20:02;5.10;99.90
45761;DHT22;31471;51.040;14.414;2022-11-18T00:22:27;5.10;99.90
45761;DHT22;31471;51.040;14.414;2022-11-18T00:24:53;5.10;99.90
45761;DHT22;31471;51.040;14.414;2022-11-18T00:27:18;5.00;99.90
45761;DHT22;31471;51.040;14.414;2022-11-18T00:29:44;5.00;99.90
45761;DHT22;31471;51.040;14.414;2022-11-18T00:32:09;5.00;99.90
45761;DHT22;31471;51.040;14.414;2022-11-18T00:34:35;5.10;99.90
45761;DHT22;31471;51.040;14.414;2022-11-18T00:37:00;5.10;99.90
45761;DHT22;31471;51.040;14.414;2022-11-18T00:39:26;5.10;99.90
45761;DHT22;31471;51.040;14.414;2022-11-18T00:41:51;5.10;99.90
45761;DHT22;31471;51.040;14.414;2022-11-18T00:44:36;5.10;99.90
45761;DHT22;31471;51.040;14.414;2022-11-18T00:47:02;5.10;99.90
45761;DHT22;31471;51.040;14.414;2022-11-18T00:49:27;5.00;99.90
45761;DHT22;31471;51.040;14.414;2022-11-18T00:51:53;5.10;99.90
45761;DHT22;31471;51.040;14.414;2022-11-18T00:54:19;5.10;99.90
45761;DHT22;31471;51.040;14.414;2022-11-18T00:56:44;5.10;99.90
45761;DHT22;31471;51.040;14.414;2022-11-18T00:59:10;5.10;99.90
45761;DHT22;31471;51.040;14.414;2022-11-18T01:01:35;5.10;99.90
45761;DHT22;31471;51.040;14.414;2022-11-18T01:04:01;5.10;99.90
45761;DHT22;31471;51.040;14.414;2022-11-18T01:06:27;5.10;99.90
45761;DHT22;31471;51.040;14.414;2022-11-18T01:08:52;5.10;99.90
45761;DHT22;31471;51.040;14.414;2022-11-18T01:11:18;5.10;99.90
45761;DHT22;31471;51.040;14.414;2022-11-18T01:14:02;5.10;99.90
45761;DHT22;31471;51.040;14.414;2022-11-18T01:16:28;5.00;99.90
45761;DHT22;31471;51.040;14.414;2022-11-18T01:18:55;5.10;99.90
45761;DHT22;31471;51.040;14.414;2022-11-18T01:21:21;5.10;99.90
45761;DHT22;31471;51.040;14.414;2022-11-18T01:23:47;5.10;99.90
45761;DHT22;31471;51.040;14.414;2022-11-18T01:26:14;5.10;99.90
45761;DHT22;31471;51.040;14.414;2022-11-18T01:28:41;5.10;99.90
45761;DHT22;31471;51.040;14.414;2022-11-18T01:31:11;5.20;99.90
45761;DHT22;31471;51.040;14.414;2022-11-18T01:33:37;5.10;99.90
45761;DHT22;31471;51.040;14.414;2022-11-18T01:36:04;5.10;99.90
45761;DHT22;31471;51.040;14.414;2022-11-18T01:38:38;5.00;99.90
45761;DHT22;31471;51.040;14.414;2022-11-18T01:41:04;5.10;99.90
45761;DHT22;31471;51.040;14.414;2022-11-18T01:43:56;5.10;99.90
45761;DHT22;31471;51.040;14.414;2022-11-18T01:46:23;5.10;99.90
45761;DHT22;31471;51.040;14.414;2022-11-18T01:48:56;5.10;99.90
45761;DHT22;31471;51.040;14.414;2022-11-18T01:51:28;5.20;99.90
45761;DHT22;31471;51.040;14.414;2022-11-18T01:53:58;5.20;99.90
45761;DHT22;31471;51.040;14.414;2022-11-18T01:56:32;5.20;99.90
45761;DHT22;31471;51.040;14.414;2022-11-18T01:59:02;5.20;99.90
45761;DHT22;31471;51.040;14.414;2022-11-18T02:01:30;5.20;99.90
45761;DHT22;31471;51.040;14.414;2022-11-18T02:03:56;5.10;99.90
45761;DHT22;31471;51.040;14.414;2022-11-18T02:06:22;5.10;99.90
45761;DHT22;31471;51.040;14.414;2022-11-18T02:08:48;5.10;99.90
45761;DHT22;31471;51.040;14.414;2022-11-18T02:11:15;5.10;99.90
45761;DHT22;31471;51.040;14.414;2022-11-18T02:14:02;5.10;99.90
45761;DHT22;31471;51.040;14.414;2022-11-18T02:20:47;5.10;99.90
45761;DHT22;31471;51.040;14.414;2022-11-18T02:31:54;5.00;99.90
45761;DHT22;31471;51.040;14.414;2022-11-18T02:37:21;4.90;99.90
45761;DHT22;31471;51.040;14.414;2022-11-18T02:40:06;4.90;99.90
45761;DHT22;31471;51.040;14.414;2022-11-18T02:42:34;4.90;99.90
45761;DHT22;31471;51.040;14.414;2022-11-18T02:45:05;4.90;99.90
45761;DHT22;31471;51.040;14.414;2022-11-18T02:47:35;4.80;99.90
45761;DHT22;31471;51.040;14.414;2022-11-18T02:50:05;4.50;99.90
45761;DHT22;31471;51.040;14.414;2022-11-18T02:52:33;4.60;99.90
45761;DHT22;31471;51.040;14.414;2022-11-18T02:55:02;4.60;99.90
45761;DHT22;31471;51.040;14.414;2022-11-18T02:57:31;4.70;99.90
45761;DHT22;31471;51.040;14.414;2022-11-18T02:59:57;4.50;99.90
45761;DHT22;31471;51.040;14.414;2022-11-18T03:02:23;4.40;99.90
45761;DHT22;31471;51.040;14.414;2022-11-18T03:04:51;4.30;99.90
45761;DHT22;31471;51.040;14.414;2022-11-18T03:07:28;4.30;99.90
45761;DHT22;31471;51.040;14.414;2022-11-18T03:09:56;4.30;99.90
45761;DHT22;31471;51.040;14.414;2022-11-18T03:12:27;4.30;99.90
45761;DHT22;31471;51.040;14.414;2022-11-18T03:15:27;4.30;99.90
45761;DHT22;31471;51.040;14.414;2022-11-18T03:18:17;4.30;99.90
45761;DHT22;31471;51.040;14.414;2022-11-18T03:20:49;4.20;99.90
45761;DHT22;31471;51.040;14.414;2022-11-18T03:23:27;4.10;99.90
45761;DHT22;31471;51.040;14.414;2022-11-18T03:25:58;4.10;99.90
45761;DHT22;31471;51.040;14.414;2022-11-18T03:28:44;4.10;99.90
45761;DHT22;31471;51.040;14.414;2022-11-18T03:31:22;4.10;99.90
45761;DHT22;31471;51.040;14.414;2022-11-18T03:34:10;4.20;99.90
45761;DHT22;31471;51.040;14.414;2022-11-18T03:36:40;4.20;99.90
45761;DHT22;31471;51.040;14.414;2022-11-18T03:39:10;4.30;99.90
45761;DHT22;31471;51.040;14.414;2022-11-18T03:41:45;4.20;99.90
45761;DHT22;31471;51.040;14.414;2022-11-18T03:44:16;4.20;99.90
45761;DHT22;31471;51.040;14.414;2022-11-18T03:46:46;4.20;99.90
45761;DHT22;31471;51.040;14.414;2022-11-18T03:49:17;4.10;99.90
45761;DHT22;31471;51.040;14.414;2022-11-18T03:51:51;4.00;99.90
45761;DHT22;31471;51.040;14.414;2022-11-18T03:54:22;4.00;99.90
45761;DHT22;31471;51.040;14.414;2022-11-18T03:56:56;4.00;99.90
45761;DHT22;31471;51.040;14.414;2022-11-18T04:02:12;3.80;99.90
45761;DHT22;31471;51.040;14.414;2022-11-18T04:04:39;3.80;99.90
45761;DHT22;31471;51.040;14.414;2022-11-18T04:10:07;3.80;99.90
45761;DHT22;31471;51.040;14.414;2022-11-18T04:13:00;3.80;99.90
45761;DHT22;31471;51.040;14.414;2022-11-18T04:15:23;3.70;99.90
45761;DHT22;31471;51.040;14.414;2022-11-18T04:17:49;3.80;99.90
45761;DHT22;31471;51.040;14.414;2022-11-18T04:20:17;3.80;99.90
45761;DHT22;31471;51.040;14.414;2022-11-18T04:22:44;3.80;99.90
45761;DHT22;31471;51.040;14.414;2022-11-18T04:25:09;3.70;99.90
45761;DHT22;31471;51.040;14.414;2022-11-18T04:27:35;3.70;99.90
45761;DHT22;31471;51.040;14.414;2022-11-18T04:30:01;3.70;99.90
45761;DHT22;31471;51.040;14.414;2022-11-18T04:32:27;3.60;99.90
45761;DHT22;31471;51.040;14.414;2022-11-18T04:34:53;3.30;99.90
45761;DHT22;31471;51.040;14.414;2022-11-18T04:37:19;3.10;99.90
45761;DHT22;31471;51.040;14.414;2022-11-18T04:39:44;3.10;99.90
45761;DHT22;31471;51.040;14.414;2022-11-18T04:42:10;3.10;99.90
45761;DHT22;31471;51.040;14.414;2022-11-18T04:44:35;3.20;99.90
45761;DHT22;31471;51.040;14.414;2022-11-18T04:47:03;3.20;99.90
45761;DHT22;31471;51.040;14.414;2022-11-18T04:49:30;3.40;99.90
45761;DHT22;31471;51.040;14.414;2022-11-18T04:51:56;3.40;99.90
45761;DHT22;31471;51.040;14.414;2022-11-18T04:54:23;3.40;99.90
45761;DHT22;31471;51.040;14.414;2022-11-18T04:56:49;3.40;99.90
45761;DHT22;31471;51.040;14.414;2022-11-18T04:59:17;3.40;99.90
45761;DHT22;31471;51.040;14.414;2022-11-18T05:01:43;3.40;99.90
45761;DHT22;31471;51.040;14.414;2022-11-18T05:04:18;3.40;99.90
45761;DHT22;31471;51.040;14.414;2022-11-18T05:06:43;3.40;99.90
45761;DHT22;31471;51.040;14.414;2022-11-18T05:09:10;3.40;99.90
45761;DHT22;31471;51.040;14.414;2022-11-18T05:11:35;3.40;99.90
45761;DHT22;31471;51.040;14.414;2022-11-18T05:14:20;3.30;99.90
45761;DHT22;31471;51.040;14.414;2022-11-18T05:16:45;3.30;99.90
45761;DHT22;31471;51.040;14.414;2022-11-18T05:19:11;3.30;99.90
45761;DHT22;31471;51.040;14.414;2022-11-18T05:21:37;3.30;99.90
45761;DHT22;31471;51.040;14.414;2022-11-18T05:24:03;3.30;99.90
45761;DHT22;31471;51.040;14.414;2022-11-18T05:26:29;3.20;99.90
45761;DHT22;31471;51.040;14.414;2022-11-18T05:28:55;3.20;99.90
45761;DHT22;31471;51.040;14.414;2022-11-18T05:31:20;3.20;99.90
45761;DHT22;31471;51.040;14.414;2022-11-18T05:33:46;3.20;99.90
45761;DHT22;31471;51.040;14.414;2022-11-18T05:36:14;3.30;99.90
45761;DHT22;31471;51.040;14.414;2022-11-18T05:38:40;3.00;99.90
45761;DHT22;31471;51.040;14.414;2022-11-18T05:41:06;3.10;99.90
45761;DHT22;31471;51.040;14.414;2022-11-18T05:43:33;3.20;99.90
45761;DHT22;31471;51.040;14.414;2022-11-18T05:45:59;3.10;99.90
45761;DHT22;31471;51.040;14.414;2022-11-18T05:48:25;3.10;99.90
45761;DHT22;31471;51.040;14.414;2022-11-18T05:50:53;3.10;99.90
45761;DHT22;31471;51.040;14.414;2022-11-18T05:53:20;3.10;99.90
45761;DHT22;31471;51.040;14.414;2022-11-18T05:55:48;3.20;99.90
45761;DHT22;31471;51.040;14.414;2022-11-18T05:58:16;3.20;99.90
45761;DHT22;31471;51.040;14.414;2022-11-18T06:00:43;3.10;99.90
45761;DHT22;31471;51.040;14.414;2022-11-18T06:03:19;3.10;99.90
45761;DHT22;31471;51.040;14.414;2022-11-18T06:05:45;3.10;99.90
45761;DHT22;31471;51.040;14.414;2022-11-18T06:08:13;3.00;99.90
45761;DHT22;31471;51.040;14.414;2022-11-18T06:10:40;3.00;99.90
45761;DHT22;31471;51.040;14.414;2022-11-18T06:13:09;3.00;99.90
45761;DHT22;31471;51.040;14.414;2022-11-18T06:15:40;3.10;99.90
45761;DHT22;31471;51.040;14.414;2022-11-18T06:18:28;3.00;99.90
45761;DHT22;31471;51.040;14.414;2022-11-18T06:20:55;3.00;99.90
45761;DHT22;31471;51.040;14.414;2022-11-18T06:23:22;3.00;99.90
45761;DHT22;31471;51.040;14.414;2022-11-18T06:25:48;3.00;99.90
45761;DHT22;31471;51.040;14.414;2022-11-18T06:28:15;3.00;99.90
45761;DHT22;31471;51.040;14.414;2022-11-18T06:30:41;3.00;99.90
45761;DHT22;31471;51.040;14.414;2022-11-18T06:33:07;2.90;99.90
45761;DHT22;31471;51.040;14.414;2022-11-18T06:35:33;3.00;99.90
45761;DHT22;31471;51.040;14.414;2022-11-18T06:37:59;2.90;99.90
45761;DHT22;31471;51.040;14.414;2022-11-18T06:40:24;2.90;99.90
45761;DHT22;31471;51.040;14.414;2022-11-18T06:42:50;2.90;99.90
45761;DHT22;31471;51.040;14.414;2022-11-18T06:45:34;2.90;99.90
45761;DHT22;31471;51.040;14.414;2022-11-18T06:48:00;2.70;99.90
45761;DHT22;31471;51.040;14.414;2022-11-18T06:50:26;2.80;99.90
45761;DHT22;31471;51.040;14.414;2022-11-18T06:52:52;2.80;99.90
45761;DHT22;31471;51.040;14.414;2022-11-18T06:55:18;2.80;99.90
45761;DHT22;31471;51.040;14.414;2022-11-18T06:57:44;2.90;99.90
45761;DHT22;31471;51.040;14.414;2022-11-18T07:00:10;2.70;99.90
45761;DHT22;31471;51.040;14.414;2022-11-18T07:02:36;2.70;99.90
45761;DHT22;31471;51.040;14.414;2022-11-18T07:05:02;2.70;99.90
45761;DHT22;31471;51.040;14.414;2022-11-18T07:07:28;2.70;99.90
45761;DHT22;31471;51.040;14.414;2022-11-18T07:09:53;2.60;99.90
45761;DHT22;31471;51.040;14.414;2022-11-18T07:12:19;2.60;99.90
45761;DHT22;31471;51.040;14.414;2022-11-18T07:14:45;2.30;99.90
45761;DHT22;31471;51.040;14.414;2022-11-18T07:17:10;2.40;99.90
45761;DHT22;31471;51.040;14.414;2022-11-18T07:19:36;2.40;99.90
45761;DHT22;31471;51.040;14.414;2022-11-18T07:22:02;2.50;99.90
45761;DHT22;31471;51.040;14.414;2022-11-18T07:24:27;2.40;99.90
45761;DHT22;31471;51.040;14.414;2022-11-18T07:26:53;2.40;99.90
45761;DHT22;31471;51.040;14.414;2022-11-18T07:29:19;2.40;99.90
45761;DHT22;31471;51.040;14.414;2022-11-18T07:31:44;2.30;99.90
45761;DHT22;31471;51.040;14.414;2022-11-18T07:34:11;2.30;99.90
45761;DHT22;31471;51.040;14.414;2022-11-18T07:36:37;2.00;99.90
45761;DHT22;31471;51.040;14.414;2022-11-18T07:39:05;2.00;99.90
45761;DHT22;31471;51.040;14.414;2022-11-18T07:41:31;2.10;99.90
45761;DHT22;31471;51.040;14.414;2022-11-18T07:43:58;1.90;99.90
45761;DHT22;31471;51.040;14.414;2022-11-18T07:46:27;2.10;99.90
45761;DHT22;31471;51.040;14.414;2022-11-18T07:48:55;2.10;99.90
45761;DHT22;31471;51.040;14.414;2022-11-18T07:51:26;2.00;99.90
45761;DHT22;31471;51.040;14.414;2022-11-18T07:53:52;2.00;99.90
45761;DHT22;31471;51.040;14.414;2022-11-18T07:56:19;2.00;99.90
45761;DHT22;31471;51.040;14.414;2022-11-18T07:58:45;2.00;99.90
45761;DHT22;31471;51.040;14.414;2022-11-18T08:01:14;2.00;99.90
45761;DHT22;31471;51.040;14.414;2022-11-18T08:03:40;2.10;99.90
45761;DHT22;31471;51.040;14.414;2022-11-18T08:06:07;2.10;99.90
45761;DHT22;31471;51.040;14.414;2022-11-18T08:08:33;1.90;99.90
45761;DHT22;31471;51.040;14.414;2022-11-18T08:10:59;2.00;99.90
45761;DHT22;31471;51.040;14.414;2022-11-18T08:13:26;1.90;99.90
45761;DHT22;31471;51.040;14.414;2022-11-18T08:15:52;2.00;99.90
45761;DHT22;31471;51.040;14.414;2022-11-18T08:18:18;1.90;99.90
45761;DHT22;31471;51.040;14.414;2022-11-18T08:20:44;2.00;99.90
45761;DHT22;31471;51.040;14.414;2022-11-18T08:23:10;1.80;99.90
45761;DHT22;31471;51.040;14.414;2022-11-18T08:25:36;1.70;99.90
45761;DHT22;31471;51.040;14.414;2022-11-18T08:28:02;1.70;99.90
45761;DHT22;31471;51.040;14.414;2022-11-18T08:30:27;1.80;99.90
45761;DHT22;31471;51.040;14.414;2022-11-18T08:32:53;1.60;99.90
45761;DHT22;31471;51.040;14.414;2022-11-18T08:35:19;1.70;99.90
45761;DHT22;31471;51.040;14.414;2022-11-18T08:37:45;1.70;99.90
45761;DHT22;31471;51.040;14.414;2022-11-18T08:40:10;1.50;99.90
45761;DHT22;31471;51.040;14.414;2022-11-18T08:42:36;1.60;99.90
45761;DHT22;31471;51.040;14.414;2022-11-18T08:45:04;1.50;99.90
45761;DHT22;31471;51.040;14.414;2022-11-18T08:47:33;1.40;99.90
45761;DHT22;31471;51.040;14.414;2022-11-18T08:49:58;1.20;99.90
45761;DHT22;31471;51.040;14.414;2022-11-18T08:52:24;1.20;99.90
45761;DHT22;31471;51.040;14.414;2022-11-18T08:54:49;1.10;99.90
45761;DHT22;31471;51.040;14.414;2022-11-18T08:57:15;1.10;99.90
45761;DHT22;31471;51.040;14.414;2022-11-18T08:59:40;1.10;99.90
45761;DHT22;31471;51.040;14.414;2022-11-18T09:02:12;1.00;99.90
45761;DHT22;31471;51.040;14.414;2022-11-18T09:04:38;0.90;99.90
45761;DHT22;31471;51.040;14.414;2022-11-18T09:07:04;0.90;99.90
45761;DHT22;31471;51.040;14.414;2022-11-18T09:09:30;0.90;99.90
45761;DHT22;31471;51.040;14.414;2022-11-18T09:11:55;1.00;99.90
45761;DHT22;31471;51.040;14.414;2022-11-18T09:14:21;0.70;99.90
45761;DHT22;31471;51.040;14.414;2022-11-18T09:16:46;0.80;99.90
45761;DHT22;31471;51.040;14.414;2022-11-18T09:19:14;0.90;99.90
45761;DHT22;31471;51.040;14.414;2022-11-18T09:21:39;0.90;99.90
45761;DHT22;31471;51.040;14.414;2022-11-18T09:24:06;0.60;99.90
45761;DHT22;31471;51.040;14.414;2022-11-18T09:26:32;0.70;99.90
45761;DHT22;31471;51.040;14.414;2022-11-18T09:28:57;0.40;99.90
45761;DHT22;31471;51.040;14.414;2022-11-18T09:31:23;0.40;99.90
45761;DHT22;31471;51.040;14.414;2022-11-18T09:33:48;0.30;99.90
45761;DHT22;31471;51.040;14.414;2022-11-18T09:36:22;0.30;99.90
45761;DHT22;31471;51.040;14.414;2022-11-18T09:38:48;0.20;99.90
45761;DHT22;31471;51.040;14.414;2022-11-18T09:41:20;0.50;99.90
45761;DHT22;31471;51.040;14.414;2022-11-18T09:49:10;0.20;99.90
45761;DHT22;31471;51.040;14.414;2022-11-18T09:51:46;0.30;99.90
45761;DHT22;31471;51.040;14.414;2022-11-18T09:54:24;0.30;99.90
45761;DHT22;31471;51.040;14.414;2022-11-18T09:56:52;0.30;99.90
45761;DHT22;31471;51.040;14.414;2022-11-18T09:59:22;0.10;99.90
45761;DHT22;31471;51.040;14.414;2022-11-18T10:01:50;0.20;99.90
45761;DHT22;31471;51.040;14.414;2022-11-18T10:04:18;0.10;99.90
45761;DHT22;31471;51.040;14.414;2022-11-18T10:06:45;0.10;99.90
45761;DHT22;31471;51.040;14.414;2022-11-18T10:09:22;0.10;99.90
45761;DHT22;31471;51.040;14.414;2022-11-18T10:15:21;0.20;99.90
45761;DHT22;31471;51.040;14.414;2022-11-18T10:21:08;0.40;99.90
45761;DHT22;31471;51.040;14.414;2022-11-18T10:24:00;0.20;99.90
45761;DHT22;31471;51.040;14.414;2022-11-18T10:26:45;0.20;99.90
45761;DHT22;31471;51.040;14.414;2022-11-18T10:29:11;0.20;99.90
45761;DHT22;31471;51.040;14.414;2022-11-18T10:34:24;0.20;99.90
45761;DHT22;31471;51.040;14.414;2022-11-18T10:37:12;0.30;99.90
45761;DHT22;31471;51.040;14.414;2022-11-18T10:39:54;0.40;99.90
45761;DHT22;31471;51.040;14.414;2022-11-18T10:42:41;0.50;99.90
45761;DHT22;31471;51.040;14.414;2022-11-18T10:45:30;0.50;99.90
45761;DHT22;31471;51.040;14.414;2022-11-18T10:50:42;0.50;99.90
45761;DHT22;31471;51.040;14.414;2022-11-18T10:56:04;0.70;99.90
45761;DHT22;31471;51.040;14.414;2022-11-18T10:58:34;0.70;99.90
45761;DHT22;31471;51.040;14.414;2022-11-18T11:01:21;0.70;99.90
45761;DHT22;31471;51.040;14.414;2022-11-18T11:04:25;0.70;99.90
45761;DHT22;31471;51.040;14.414;2022-11-18T11:06:52;0.80;99.90
45761;DHT22;31471;51.040;14.414;2022-11-18T11:14:35;0.40;99.90
45761;DHT22;31471;51.040;14.414;2022-11-18T11:17:09;0.30;99.90
45761;DHT22;31471;51.040;14.414;2022-11-18T11:19:50;0.10;99.90
45761;DHT22;31471;51.040;14.414;2022-11-18T11:22:16;0.20;99.90
45761;DHT22;31471;51.040;14.414;2022-11-18T11:24:42;0.30;99.90
45761;DHT22;31471;51.040;14.414;2022-11-18T11:27:42;0.40;99.90
45761;DHT22;31471;51.040;14.414;2022-11-18T11:30:22;0.40;99.90
45761;DHT22;31471;51.040;14.414;2022-11-18T11:36:00;0.20;99.90
45761;DHT22;31471;51.040;14.414;2022-11-18T11:38:47;0.30;99.90
45761;DHT22;31471;51.040;14.414;2022-11-18T11:41:25;0.40;99.90
45761;DHT22;31471;51.040;14.414;2022-11-18T11:49:11;0.20;99.90
45761;DHT22;31471;51.040;14.414;2022-11-18T11:51:52;0.10;99.90
45761;DHT22;31471;51.040;14.414;2022-11-18T11:57:07;0.00;99.90
45761;DHT22;31471;51.040;14.414;2022-11-18T11:59:57;-0.10;99.90
45761;DHT22;31471;51.040;14.414;2022-11-18T12:02:34;0.10;99.90
45761;DHT22;31471;51.040;14.414;2022-11-18T12:13:16;0.20;99.90
45761;DHT22;31471;51.040;14.414;2022-11-18T12:21:50;0.00;99.90
45761;DHT22;31471;51.040;14.414;2022-11-18T12:26:45;-0.30;99.90
45761;DHT22;31471;51.040;14.414;2022-11-18T12:31:44;-0.20;99.90
45761;DHT22;31471;51.040;14.414;2022-11-18T12:34:37;-0.20;99.90
45761;DHT22;31471;51.040;14.414;2022-11-18T12:39:57;-0.20;99.90
45761;DHT22;31471;51.040;14.414;2022-11-18T12:42:44;-0.20;99.90
45761;DHT22;31471;51.040;14.414;2022-11-18T12:48:27;-0.40;99.90
45761;DHT22;31471;51.040;14.414;2022-11-18T12:50:57;-0.60;99.90
45761;DHT22;31471;51.040;14.414;2022-11-18T12:56:26;-0.40;99.90
45761;DHT22;31471;51.040;14.414;2022-11-18T12:58:57;-0.30;99.90
45761;DHT22;31471;51.040;14.414;2022-11-18T13:01:33;-0.60;99.90
45761;DHT22;31471;51.040;14.414;2022-11-18T13:04:14;-0.60;99.90
45761;DHT22;31471;51.040;14.414;2022-11-18T13:06:40;-0.70;99.90
45761;DHT22;31471;51.040;14.414;2022-11-18T13:09:11;-0.60;99.90
45761;DHT22;31471;51.040;14.414;2022-11-18T13:12:05;-0.50;99.90
45761;DHT22;31471;51.040;14.414;2022-11-18T13:14:40;-0.60;99.90
45761;DHT22;31471;51.040;14.414;2022-11-18T13:17:33;-0.60;99.90
45761;DHT22;31471;51.040;14.414;2022-11-18T13:26:22;-0.60;99.90
45761;DHT22;31471;51.040;14.414;2022-11-18T13:33:48;-1.00;99.90
45761;DHT22;31471;51.040;14.414;2022-11-18T13:36:22;-1.20;99.90
45761;DHT22;31471;51.040;14.414;2022-11-18T13:39:18;-1.30;99.90
45761;DHT22;31471;51.040;14.414;2022-11-18T13:41:45;-1.10;99.90
45761;DHT22;31471;51.040;14.414;2022-11-18T13:44:23;-1.30;99.90
45761;DHT22;31471;51.040;14.414;2022-11-18T13:47:06;-1.00;99.90
45761;DHT22;31471;51.040;14.414;2022-11-18T13:49:44;-1.20;99.90
45761;DHT22;31471;51.040;14.414;2022-11-18T13:52:19;-1.30;99.90
45761;DHT22;31471;51.040;14.414;2022-11-18T13:54:47;-1.10;99.90
45761;DHT22;31471;51.040;14.414;2022-11-18T13:57:17;-1.00;99.90
45761;DHT22;31471;51.040;14.414;2022-11-18T13:59:45;-1.10;99.90
45761;DHT22;31471;51.040;14.414;2022-11-18T14:02:13;-1.10;99.90
45761;DHT22;31471;51.040;14.414;2022-11-18T14:04:51;-0.90;99.90
45761;DHT22;31471;51.040;14.414;2022-11-18T14:09:53;-1.20;99.90
45761;DHT22;31471;51.040;14.414;2022-11-18T14:12:25;-1.10;99.90
45761;DHT22;31471;51.040;14.414;2022-11-18T14:15:11;-1.20;99.90
45761;DHT22;31471;51.040;14.414;2022-11-18T14:17:37;-1.20;99.90
45761;DHT22;31471;51.040;14.414;2022-11-18T14:20:15;-1.20;99.90
45761;DHT22;31471;51.040;14.414;2022-11-18T14:22:42;-1.10;99.90
45761;DHT22;31471;51.040;14.414;2022-11-18T14:25:18;-1.30;99.90
45761;DHT22;31471;51.040;14.414;2022-11-18T14:27:49;-1.30;99.90
45761;DHT22;31471;51.040;14.414;2022-11-18T14:30:35;-1.30;99.90
45761;DHT22;31471;51.040;14.414;2022-11-18T14:33:13;-1.30;99.90
45761;DHT22;31471;51.040;14.414;2022-11-18T14:35:42;-1.20;99.90
45761;DHT22;31471;51.040;14.414;2022-11-18T14:40:42;-1.50;99.90
45761;DHT22;31471;51.040;14.414;2022-11-18T14:43:10;-1.50;99.90
45761;DHT22;31471;51.040;14.414;2022-11-18T14:45:36;-1.20;99.90
45761;DHT22;31471;51.040;14.414;2022-11-18T14:48:02;-1.10;99.90
45761;DHT22;31471;51.040;14.414;2022-11-18T14:50:28;-1.10;99.90
45761;DHT22;31471;51.040;14.414;2022-11-18T14:52:53;-1.10;99.90
45761;DHT22;31471;51.040;14.414;2022-11-18T14:55:19;-1.10;99.90
45761;DHT22;31471;51.040;14.414;2022-11-18T14:57:45;-1.40;99.90
45761;DHT22;31471;51.040;14.414;2022-11-18T15:00:13;-1.30;99.90
45761;DHT22;31471;51.040;14.414;2022-11-18T15:02:40;-1.40;99.90
45761;DHT22;31471;51.040;14.414;2022-11-18T15:05:06;-1.30;99.90
45761;DHT22;31471;51.040;14.414;2022-11-18T15:07:31;-1.30;99.90
45761;DHT22;31471;51.040;14.414;2022-11-18T15:09:57;-1.30;99.90
45761;DHT22;31471;51.040;14.414;2022-11-18T15:12:23;-1.30;99.90
45761;DHT22;31471;51.040;14.414;2022-11-18T15:14:48;-1.30;99.90
45761;DHT22;31471;51.040;14.414;2022-11-18T15:17:14;-1.40;99.90
45761;DHT22;31471;51.040;14.414;2022-11-18T15:19:39;-1.40;99.90
45761;DHT22;31471;51.040;14.414;2022-11-18T15:22:06;-1.30;99.90
45761;DHT22;31471;51.040;14.414;2022-11-18T15:24:31;-1.30;99.90
45761;DHT22;31471;51.040;14.414;2022-11-18T15:26:57;-1.30;99.90
45761;DHT22;31471;51.040;14.414;2022-11-18T15:29:23;-1.40;99.90
45761;DHT22;31471;51.040;14.414;2022-11-18T15:31:50;-1.30;99.90
45761;DHT22;31471;51.040;14.414;2022-11-18T15:34:17;-1.30;99.90
45761;DHT22;31471;51.040;14.414;2022-11-18T15:36:45;-1.40;99.90
45761;DHT22;31471;51.040;14.414;2022-11-18T15:39:11;-1.30;99.90
45761;DHT22;31471;51.040;14.414;2022-11-18T15:41:38;-1.50;99.90
45761;DHT22;31471;51.040;14.414;2022-11-18T15:44:04;-1.40;99.90
45761;DHT22;31471;51.040;14.414;2022-11-18T15:46:30;-1.40;99.90
45761;DHT22;31471;51.040;14.414;2022-11-18T15:48:57;-1.30;99.90
45761;DHT22;31471;51.040;14.414;2022-11-18T15:51:25;-1.30;99.90
45761;DHT22;31471;51.040;14.414;2022-11-18T15:53:51;-1.50;99.90
45761;DHT22;31471;51.040;14.414;2022-11-18T15:58:43;-1.50;99.90
45761;DHT22;31471;51.040;14.414;2022-11-18T16:01:09;-1.50;99.90
45761;DHT22;31471;51.040;14.414;2022-11-18T16:03:34;-1.60;99.90
45761;DHT22;31471;51.040;14.414;2022-11-18T16:06:00;-1.70;99.90
45761;DHT22;31471;51.040;14.414;2022-11-18T16:08:26;-1.70;99.90
45761;DHT22;31471;51.040;14.414;2022-11-18T16:10:55;-1.70;99.90
45761;DHT22;31471;51.040;14.414;2022-11-18T16:13:39;-1.70;99.90
45761;DHT22;31471;51.040;14.414;2022-11-18T16:16:05;-1.80;99.90
45761;DHT22;31471;51.040;14.414;2022-11-18T16:18:31;-1.70;99.90
45761;DHT22;31471;51.040;14.414;2022-11-18T16:21:00;-2.00;99.90
45761;DHT22;31471;51.040;14.414;2022-11-18T16:23:26;-1.90;99.90
45761;DHT22;31471;51.040;14.414;2022-11-18T16:25:54;-2.00;99.90
45761;DHT22;31471;51.040;14.414;2022-11-18T16:28:20;-1.90;99.90
45761;DHT22;31471;51.040;14.414;2022-11-18T16:30:49;-1.90;99.90
45761;DHT22;31471;51.040;14.414;2022-11-18T16:33:33;-1.90;99.90
45761;DHT22;31471;51.040;14.414;2022-11-18T16:35:59;-1.90;99.90
45761;DHT22;31471;51.040;14.414;2022-11-18T16:38:25;-1.80;99.90
45761;DHT22;31471;51.040;14.414;2022-11-18T16:40:54;-1.80;99.90
45761;DHT22;31471;51.040;14.414;2022-11-18T16:43:21;-1.80;99.90
45761;DHT22;31471;51.040;14.414;2022-11-18T16:45:50;-1.90;99.90
45761;DHT22;31471;51.040;14.414;2022-11-18T16:48:17;-2.00;99.90
45761;DHT22;31471;51.040;14.414;2022-11-18T16:50:43;-1.90;99.90
45761;DHT22;31471;51.040;14.414;2022-11-18T16:53:08;-1.80;99.90
45761;DHT22;31471;51.040;14.414;2022-11-18T16:55:34;-1.90;99.90
45761;DHT22;31471;51.040;14.414;2022-11-18T16:57:59;-1.80;99.90
45761;DHT22;31471;51.040;14.414;2022-11-18T17:00:25;-1.90;99.90
45761;DHT22;31471;51.040;14.414;2022-11-18T17:02:50;-1.90;99.90
45761;DHT22;31471;51.040;14.414;2022-11-18T17:05:16;-1.70;99.90
45761;DHT22;31471;51.040;14.414;2022-11-18T17:07:42;-1.70;99.90
45761;DHT22;31471;51.040;14.414;2022-11-18T17:10:08;-1.50;99.90
45761;DHT22;31471;51.040;14.414;2022-11-18T17:12:47;-1.60;99.90
45761;DHT22;31471;51.040;14.414;2022-11-18T17:15:13;-1.60;99.90
45761;DHT22;31471;51.040;14.414;2022-11-18T17:17:39;-1.80;99.90
45761;DHT22;31471;51.040;14.414;2022-11-18T17:20:05;-1.80;99.90
45761;DHT22;31471;51.040;14.414;2022-11-18T17:22:31;-1.60;99.90
45761;DHT22;31471;51.040;14.414;2022-11-18T17:24:56;-1.70;99.90
45761;DHT22;31471;51.040;14.414;2022-11-18T17:27:22;-1.60;99.90